Time;durP1;ratioP1;P1;durP2;ratioP2;P2;SDS_P1;SDS_P2;PMS_P1;PMS_P2;Temp;Humidity;BMP_temperature;BMP_pressure;BME280_temperature;BME280_humidity;BME280_pressure;Samples;Min_cycle;Max_cycle;Signal;HPM_P1;HPM_P2
2022/09/08 00:02:44;;;;;;;4.90;3.30;;;23.10;58.80;;;;;;20579991;28;20042;-72
2022/09/08 00:12:46;;;;;;;4.15;3.00;;;23.10;58.80;;;;;;20579230;28;20122;-74
2022/09/08 00:22:46;;;;;;;3.75;2.97;;;23.10;58.80;;;;;;20578960;28;20117;-73
2022/09/08 00:32:47;;;;;;;3.53;3.05;;;23.00;58.80;;;;;;20562266;28;20523;-72
2022/09/08 00:42:57;;;;;;;3.97;3.17;;;23.10;58.80;;;;;;20562236;28;20042;-73
2022/09/08 00:53:00;;;;;;;2.88;2.58;;;23.00;58.80;;;;;;20577665;28;20043;-72
2022/09/08 01:03:01;;;;;;;3.15;2.65;;;23.00;58.80;;;;;;20577583;28;20035;-73
2022/09/08 01:13:02;;;;;;;3.45;2.30;;;23.00;58.80;;;;;;20577202;28;20219;-73
2022/09/08 01:23:05;;;;;;;4.00;2.35;;;23.00;58.60;;;;;;20577009;28;20066;-73
2022/09/08 01:33:06;;;;;;;3.40;2.47;;;23.10;58.60;;;;;;20989206;23;20049;-74
2022/09/08 01:43:10;;;;;;;3.37;2.90;;;23.00;58.50;;;;;;20560115;28;20046;-74
2022/09/08 01:53:10;;;;;;;3.38;2.80;;;23.00;58.50;;;;;;20543571;28;20039;-74
2022/09/08 02:03:11;;;;;;;2.78;2.50;;;23.00;59.10;;;;;;20590151;28;20473;-75
2022/09/08 02:13:12;;;;;;;4.13;3.17;;;23.00;58.50;;;;;;20572777;28;20047;-75
2022/09/08 02:23:13;;;;;;;4.32;3.05;;;23.00;58.50;;;;;;20572184;28;20034;-74
2022/09/08 02:33:15;;;;;;;2.97;2.47;;;23.00;58.50;;;;;;20588544;28;20041;-74
2022/09/08 02:43:16;;;;;;;5.28;3.33;;;23.00;58.50;;;;;;20555590;28;20027;-75
2022/09/08 02:53:16;;;;;;;5.28;3.30;;;23.00;58.50;;;;;;20585447;28;20049;-75
2022/09/08 03:03:17;;;;;;;4.20;2.58;;;23.00;58.50;;;;;;20586544;28;20117;-75
2022/09/08 03:13:17;;;;;;;3.97;2.28;;;23.00;58.40;;;;;;20568534;28;20121;-75
2022/09/08 03:23:19;;;;;;;3.60;2.60;;;23.00;58.40;;;;;;20567298;28;20389;-75
2022/09/08 03:33:19;;;;;;;3.38;2.50;;;23.00;58.40;;;;;;20566713;28;20094;-74
2022/09/08 03:43:20;;;;;;;4.13;2.78;;;23.00;58.40;;;;;;20581797;28;20026;-74
2022/09/08 03:53:20;;;;;;;3.20;2.72;;;23.00;58.30;;;;;;20564849;28;20554;-75
2022/09/08 04:03:21;;;;;;;5.03;3.10;;;22.90;58.20;;;;;;20564405;28;20045;-75
2022/09/08 04:13:22;;;;;;;3.40;2.58;;;23.00;58.20;;;;;;20580491;28;20177;-85
2022/09/08 04:23:23;;;;;;;3.85;2.53;;;22.90;58.10;;;;;;20581305;28;20027;-76
2022/09/08 04:33:23;;;;;;;6.63;3.00;;;22.90;58.10;;;;;;20545845;28;20046;-74
2022/09/08 04:43:24;;;;;;;6.95;3.35;;;22.90;58.00;;;;;;20578705;28;20086;-72
2022/09/08 04:53:25;;;;;;;4.45;3.35;;;22.90;57.90;;;;;;20578476;28;20043;-76
2022/09/08 05:03:26;;;;;;;5.20;3.40;;;22.90;57.90;;;;;;20569550;28;20035;-79
2022/09/08 05:13:26;;;;;;;7.65;3.55;;;22.90;58.70;;;;;;20577240;28;20667;-76
2022/09/08 05:23:27;;;;;;;4.83;3.63;;;23.00;58.10;;;;;;20644357;28;20118;-80
2022/09/08 05:33:27;;;;;;;5.20;3.03;;;22.90;57.90;;;;;;20641011;28;20302;-76
2022/09/08 05:43:28;;;;;;;3.75;2.58;;;22.90;57.80;;;;;;20574765;28;20469;-73
2022/09/08 05:53:29;;;;;;;4.15;3.33;;;22.90;57.80;;;;;;20557650;28;20488;-79
2022/09/08 06:03:29;;;;;;;4.93;3.13;;;23.00;57.90;;;;;;20616951;28;20129;-79
2022/09/08 06:13:30;;;;;;;4.55;3.15;;;22.90;57.80;;;;;;20632394;28;20043;-77
2022/09/08 06:23:31;;;;;;;4.35;3.30;;;22.90;57.70;;;;;;20634102;28;20033;-79
2022/09/08 06:33:34;;;;;;;4.00;3.30;;;22.90;57.70;;;;;;20652053;28;20034;-75
2022/09/08 06:43:42;;;;;;;4.75;3.40;;;22.90;57.70;;;;;;20635294;28;20112;-80
2022/09/08 06:54:10;;;;;;;4.38;2.92;;;22.90;57.60;;;;;;20592924;28;20122;-74
2022/09/08 07:04:38;;;;;;;4.13;2.80;;;22.90;57.50;;;;;;20554863;28;20031;-75
2022/09/08 07:14:57;;;;;;;3.88;3.00;;;22.90;57.50;;;;;;20585876;28;20089;-75
2022/09/08 07:25:24;;;;;;;4.43;3.22;;;22.90;57.40;;;;;;20664975;28;20495;-74
2022/09/08 07:35:40;;;;;;;4.75;2.75;;;22.90;57.30;;;;;;20575752;28;20046;-74
2022/09/08 07:46:02;;;;;;;3.45;2.97;;;22.90;57.20;;;;;;20582843;28;20034;-76
2022/09/08 07:56:06;;;;;;;4.50;3.53;;;22.90;57.10;;;;;;20552299;28;20047;-76
2022/09/08 08:06:25;;;;;;;5.35;3.50;;;22.90;57.20;;;;;;20590600;28;20194;-78
2022/09/08 08:16:34;;;;;;;4.47;3.50;;;22.90;57.20;;;;;;20563568;28;20737;-79
2022/09/08 08:26:47;;;;;;;3.85;3.00;;;22.90;57.20;;;;;;20586055;28;20056;-78
2022/09/08 08:36:48;;;;;;;4.28;3.28;;;22.90;57.30;;;;;;20658052;28;20038;-79
2022/09/08 08:47:06;;;;;;;5.00;2.83;;;22.90;57.30;;;;;;20606181;28;20041;-79
2022/09/08 08:57:19;;;;;;;4.68;2.58;;;22.80;58.00;;;;;;20614543;28;20046;-78
2022/09/08 09:07:49;;;;;;;4.35;2.92;;;22.90;57.40;;;;;;20611841;28;20026;-74
2022/09/08 09:18:16;;;;;;;4.57;2.95;;;22.80;57.50;;;;;;20600277;28;20051;-76
2022/09/08 09:28:39;;;;;;;4.45;3.20;;;22.80;57.50;;;;;;20607413;28;20125;-76
2022/09/08 09:38:57;;;;;;;4.15;3.17;;;22.80;57.50;;;;;;20594944;28;20049;-75
2022/09/08 09:49:01;;;;;;;4.00;3.33;;;22.80;57.60;;;;;;20657088;28;20039;-78
2022/09/08 09:59:24;;;;;;;4.43;2.93;;;22.80;57.60;;;;;;20586196;28;20045;-79
2022/09/08 10:09:53;;;;;;;3.45;2.83;;;22.80;58.30;;;;;;20679346;28;20038;-78
2022/09/08 10:20:04;;;;;;;5.88;3.08;;;22.80;57.60;;;;;;20634659;28;20041;-80
2022/09/08 10:30:27;;;;;;;4.55;2.78;;;22.80;57.70;;;;;;20636362;28;20069;-80
2022/09/08 10:40:36;;;;;;;3.88;2.97;;;22.80;57.70;;;;;;20666973;28;20039;-81
2022/09/08 10:50:44;;;;;;;4.68;3.03;;;22.80;57.80;;;;;;20651125;28;20045;-77
2022/09/08 11:00:53;;;;;;;4.28;3.00;;;22.80;58.00;;;;;;20644837;28;20046;-74
2022/09/08 11:11:16;;;;;;;3.85;2.83;;;22.80;58.00;;;;;;20654886;28;20417;-71
2022/09/08 11:21:26;;;;;;;3.58;2.45;;;22.80;58.10;;;;;;20657816;28;20226;-73
2022/09/08 11:31:51;;;;;;;3.78;2.85;;;22.80;58.20;;;;;;20597776;28;20047;-72
2022/09/08 11:42:01;;;;;;;4.17;2.77;;;22.80;58.30;;;;;;20587608;28;20110;-75
2022/09/08 11:52:55;;;;;;;7.28;3.13;;;22.80;58.30;;;;;;20580017;28;20469;-73
2022/09/08 12:03:18;;;;;;;6.10;2.65;;;22.80;58.40;;;;;;20531434;28;20560;-75
2022/09/08 12:13:39;;;;;;;3.17;2.20;;;22.80;58.50;;;;;;20551340;28;20073;-72
2022/09/08 12:23:50;;;;;;;4.13;2.45;;;22.80;58.60;;;;;;20562932;28;20098;-71
2022/09/08 12:34:19;;;;;;;4.30;1.85;;;22.80;58.70;;;;;;20561055;28;20153;-72
2022/09/08 12:44:46;;;;;;;3.80;1.55;;;22.80;58.90;;;;;;20577462;28;20038;-73
2022/09/08 12:55:06;;;;;;;3.42;2.28;;;22.80;59.00;;;;;;20573899;28;20044;-72
2022/09/08 13:05:22;;;;;;;2.25;1.80;;;22.80;59.10;;;;;;20640720;28;20145;-72
2022/09/08 13:15:27;;;;;;;2.15;1.50;;;22.70;59.20;;;;;;20637964;28;20390;-72
2022/09/08 13:25:39;;;;;;;1.55;1.10;;;22.70;59.30;;;;;;20572652;28;20030;-74
2022/09/08 13:35:59;;;;;;;2.47;1.10;;;22.70;59.40;;;;;;20656351;28;20080;-72
2022/09/08 13:46:25;;;;;;;2.50;1.30;;;22.70;59.50;;;;;;20671064;28;20046;-71
2022/09/08 13:56:40;;;;;;;1.48;1.20;;;22.70;59.60;;;;;;20653051;28;20038;-72
2022/09/08 14:06:47;;;;;;;2.17;1.20;;;22.70;59.60;;;;;;20577823;28;20050;-71
2022/09/08 14:16:48;;;;;;;2.67;1.60;;;22.70;59.80;;;;;;20573392;28;20034;-73
2022/09/08 14:26:57;;;;;;;2.47;1.70;;;22.70;59.90;;;;;;20572635;28;20038;-75
2022/09/08 14:36:58;;;;;;;2.42;1.60;;;22.70;59.90;;;;;;20558000;28;20401;-78
2022/09/08 14:47:30;;;;;;;2.22;1.50;;;22.70;60.00;;;;;;20607170;28;20039;-78
2022/09/08 14:57:45;;;;;;;2.70;1.55;;;22.70;60.30;;;;;;20555427;28;20413;-79
2022/09/08 15:07:50;;;;;;;2.42;1.58;;;22.70;60.50;;;;;;20582518;28;20039;-72
2022/09/08 15:17:55;;;;;;;2.38;1.60;;;22.70;60.60;;;;;;20585971;28;20053;-73
2022/09/08 15:27:56;;;;;;;2.90;1.50;;;22.70;60.60;;;;;;20647662;28;20049;-73
2022/09/08 15:38:12;;;;;;;2.17;1.50;;;22.70;60.80;;;;;;20624494;28;20309;-73
2022/09/08 15:48:16;;;;;;;4.07;1.60;;;22.70;61.10;;;;;;20616140;28;20034;-73
2022/09/08 15:58:36;;;;;;;2.58;1.20;;;22.70;61.20;;;;;;20658236;28;20053;-73
2022/09/08 16:08:48;;;;;;;3.97;1.38;;;22.70;61.50;;;;;;20654615;28;21096;-73
2022/09/08 16:18:54;;;;;;;1.63;1.05;;;22.70;61.70;;;;;;20648565;28;20034;-73
2022/09/08 16:29:33;;;;;;;2.47;1.70;;;22.60;61.50;;;;;;20657298;28;20038;-73
2022/09/08 16:39:34;;;;;;;1.90;1.48;;;22.60;61.60;;;;;;20661492;28;20400;-79
2022/09/08 16:49:42;;;;;;;1.67;1.35;;;22.60;61.50;;;;;;20626657;28;20026;-79
2022/09/08 16:59:51;;;;;;;2.45;1.30;;;22.70;61.30;;;;;;20643144;28;20404;-76
2022/09/08 17:09:52;;;;;;;5.07;1.42;;;22.60;61.40;;;;;;20662281;28;20472;-74
2022/09/08 17:19:55;;;;;;;4.55;1.70;;;22.70;61.50;;;;;;20638828;28;20035;-74
2022/09/08 17:30:17;;;;;;;1.67;1.42;;;22.70;61.50;;;;;;20606131;28;20112;-77
2022/09/08 17:40:32;;;;;;;3.95;1.40;;;22.60;61.40;;;;;;20590159;28;20096;-77
2022/09/08 17:51:04;;;;;;;2.03;0.98;;;22.70;61.50;;;;;;20615322;28;20097;-77
2022/09/08 18:01:22;;;;;;;1.70;1.20;;;22.60;61.30;;;;;;20668385;28;20053;-76
2022/09/08 18:11:40;;;;;;;1.42;1.02;;;22.60;61.30;;;;;;20645701;28;20039;-77
2022/09/08 18:21:49;;;;;;;1.95;1.27;;;22.60;61.10;;;;;;20567649;28;20033;-77
2022/09/08 18:31:54;;;;;;;1.27;1.02;;;22.60;61.00;;;;;;20665084;28;20780;-77
2022/09/08 18:42:13;;;;;;;;;;;22.60;61.00;;;;;;20651813;28;20030;-77
2022/09/08 18:52:20;;;;;;;1.90;1.02;;;22.50;60.90;;;;;;20664680;28;19924;-77
2022/09/08 19:02:37;;;;;;;4.55;1.35;;;22.60;60.90;;;;;;20649993;28;20061;-77
2022/09/08 19:13:15;;;;;;;1.55;0.90;;;22.50;60.70;;;;;;20648431;28;20034;-77
2022/09/08 19:23:18;;;;;;;2.08;1.30;;;22.50;60.60;;;;;;20665275;28;20117;-77
2022/09/08 19:33:42;;;;;;;2.17;1.27;;;22.50;60.50;;;;;;20663503;28;20034;-77
2022/09/08 19:44:11;;;;;;;1.83;1.42;;;22.50;60.40;;;;;;20631559;28;20030;-78
2022/09/08 19:54:30;;;;;;;1.00;0.90;;;22.50;60.30;;;;;;20653372;28;20500;-77
2022/09/08 20:04:50;;;;;;;1.52;0.82;;;22.50;60.20;;;;;;20661166;28;20394;-77
2022/09/08 20:15:01;;;;;;;1.75;1.40;;;22.50;60.20;;;;;;20661739;28;20420;-78
2022/09/08 20:25:16;;;;;;;1.48;0.90;;;22.50;60.10;;;;;;20659942;28;20042;-77
2022/09/08 20:36:01;;;;;;;1.10;1.00;;;22.50;60.00;;;;;;20643684;28;20054;-78
2022/09/08 20:46:14;;;;;;;0.77;0.70;;;22.50;59.90;;;;;;20640882;28;20072;-78
2022/09/08 20:56:15;;;;;;;0.77;0.70;;;22.50;59.80;;;;;;20643022;28;20093;-78
2022/09/08 21:06:23;;;;;;;1.20;1.05;;;22.50;59.80;;;;;;20659079;28;20042;-78
2022/09/08 21:16:25;;;;;;;0.82;0.73;;;22.50;59.70;;;;;;20642080;28;20046;-78
2022/09/08 21:26:33;;;;;;;1.13;0.70;;;22.40;59.70;;;;;;20625540;28;20038;-78
2022/09/08 21:36:42;;;;;;;0.90;0.80;;;22.50;59.70;;;;;;20625475;28;20052;-78
2022/09/08 21:46:42;;;;;;;1.77;0.85;;;22.50;59.60;;;;;;20645119;28;20117;-77
2022/09/08 21:57:06;;;;;;;1.77;1.00;;;22.50;59.60;;;;;;20670251;28;20137;-77
2022/09/08 22:07:11;;;;;;;0.77;0.63;;;22.40;59.50;;;;;;20663950;28;20106;-78
2022/09/08 22:17:22;;;;;;;1.17;0.80;;;22.40;59.40;;;;;;20652414;28;20042;-78
2022/09/08 22:27:37;;;;;;;1.75;0.70;;;22.40;59.40;;;;;;20668872;28;20034;-77
2022/09/08 22:37:56;;;;;;;1.17;0.85;;;22.50;59.40;;;;;;20619697;28;20042;-78
2022/09/08 22:48:05;;;;;;;0.88;0.85;;;22.50;59.30;;;;;;20652744;28;20492;-77
2022/09/08 22:58:20;;;;;;;1.15;0.80;;;22.40;59.20;;;;;;20634957;28;20449;-77
2022/09/08 23:08:27;;;;;;;0.80;0.63;;;22.40;59.10;;;;;;20633646;28;20491;-77
2022/09/08 23:18:54;;;;;;;0.88;0.57;;;22.40;59.10;;;;;;20648958;28;20125;-77
2022/09/08 23:28:59;;;;;;;1.60;1.00;;;22.50;59.10;;;;;;20634228;28;20048;-77
2022/09/08 23:39:19;;;;;;;;;;;22.40;59.00;;;;;;20632005;28;20100;-76
2022/09/08 23:49:22;;;;;;;1.13;0.75;;;22.40;58.90;;;;;;20646860;28;19914;-77
2022/09/08 23:59:23;;;;;;;1.85;0.85;;;22.40;58.80;;;;;;20661546;28;20049;-77
